sensor_id;sensor_type;location;lat;lon;timestamp;temperature;humidity
796;DHT22;381;48.770;9.188;2023-12-20T00:05:01;7.70;99.90
796;DHT22;381;48.770;9.188;2023-12-20T00:10:05;7.60;99.90
796;DHT22;381;48.770;9.188;2023-12-20T00:15:08;7.60;99.90
796;DHT22;381;48.770;9.188;2023-12-20T00:20:11;7.50;99.90
796;DHT22;381;48.770;9.188;2023-12-20T00:25:15;7.60;99.90
796;DHT22;381;48.770;9.188;2023-12-20T00:30:17;7.60;99.90
796;DHT22;381;48.770;9.188;2023-12-20T00:35:20;7.60;99.90
796;DHT22;381;48.770;9.188;2023-12-20T00:40:24;7.50;99.90
796;DHT22;381;48.770;9.188;2023-12-20T00:45:26;7.50;99.90
796;DHT22;381;48.770;9.188;2023-12-20T00:50:28;7.30;99.90
796;DHT22;381;48.770;9.188;2023-12-20T00:55:32;7.30;99.90
796;DHT22;381;48.770;9.188;2023-12-20T01:00:34;7.30;99.90
796;DHT22;381;48.770;9.188;2023-12-20T01:05:37;7.20;99.90
796;DHT22;381;48.770;9.188;2023-12-20T01:10:40;7.20;99.90
796;DHT22;381;48.770;9.188;2023-12-20T01:15:43;7.10;99.90
796;DHT22;381;48.770;9.188;2023-12-20T01:20:45;7.00;99.90
796;DHT22;381;48.770;9.188;2023-12-20T01:25:49;7.00;99.90
796;DHT22;381;48.770;9.188;2023-12-20T01:30:51;7.10;99.90
796;DHT22;381;48.770;9.188;2023-12-20T01:35:54;7.00;99.90
796;DHT22;381;48.770;9.188;2023-12-20T01:40:57;7.00;99.90
796;DHT22;381;48.770;9.188;2023-12-20T01:46:00;7.00;99.90
796;DHT22;381;48.770;9.188;2023-12-20T01:51:03;7.00;99.90
796;DHT22;381;48.770;9.188;2023-12-20T01:56:07;7.00;99.90
796;DHT22;381;48.770;9.188;2023-12-20T02:01:12;7.00;99.90
796;DHT22;381;48.770;9.188;2023-12-20T02:06:14;6.90;99.90
796;DHT22;381;48.770;9.188;2023-12-20T02:11:18;6.90;99.90
796;DHT22;381;48.770;9.188;2023-12-20T02:16:21;7.00;99.90
796;DHT22;381;48.770;9.188;2023-12-20T02:21:32;7.00;99.90
796;DHT22;381;48.770;9.188;2023-12-20T02:26:35;7.00;99.90
796;DHT22;381;48.770;9.188;2023-12-20T02:31:37;6.90;99.90
796;DHT22;381;48.770;9.188;2023-12-20T02:36:41;6.90;99.90
796;DHT22;381;48.770;9.188;2023-12-20T02:41:43;6.90;99.90
796;DHT22;381;48.770;9.188;2023-12-20T02:46:46;7.00;99.90
796;DHT22;381;48.770;9.188;2023-12-20T02:51:49;7.00;99.90
796;DHT22;381;48.770;9.188;2023-12-20T02:56:52;7.00;99.90
796;DHT22;381;48.770;9.188;2023-12-20T03:01:54;7.00;99.90
796;DHT22;381;48.770;9.188;2023-12-20T03:06:58;7.00;99.90
796;DHT22;381;48.770;9.188;2023-12-20T03:12:00;7.00;99.90
796;DHT22;381;48.770;9.188;2023-12-20T03:17:03;7.00;99.90
796;DHT22;381;48.770;9.188;2023-12-20T03:22:06;7.00;99.90
796;DHT22;381;48.770;9.188;2023-12-20T03:27:09;7.00;99.90
796;DHT22;381;48.770;9.188;2023-12-20T03:32:11;6.90;99.90
796;DHT22;381;48.770;9.188;2023-12-20T03:37:15;7.00;99.90
796;DHT22;381;48.770;9.188;2023-12-20T03:42:17;7.00;99.90
796;DHT22;381;48.770;9.188;2023-12-20T03:47:19;7.00;99.90
796;DHT22;381;48.770;9.188;2023-12-20T03:52:23;7.00;99.90
796;DHT22;381;48.770;9.188;2023-12-20T03:57:25;7.00;99.90
796;DHT22;381;48.770;9.188;2023-12-20T04:02:28;7.00;99.90
796;DHT22;381;48.770;9.188;2023-12-20T04:07:31;6.90;99.90
796;DHT22;381;48.770;9.188;2023-12-20T04:12:34;6.90;99.90
796;DHT22;381;48.770;9.188;2023-12-20T04:17:36;6.90;99.90
796;DHT22;381;48.770;9.188;2023-12-20T04:22:40;6.90;99.90
796;DHT22;381;48.770;9.188;2023-12-20T04:27:43;6.90;99.90
796;DHT22;381;48.770;9.188;2023-12-20T04:32:45;6.90;99.90
796;DHT22;381;48.770;9.188;2023-12-20T04:37:49;6.90;99.90
796;DHT22;381;48.770;9.188;2023-12-20T04:42:51;6.90;99.90
796;DHT22;381;48.770;9.188;2023-12-20T04:47:54;6.90;99.90
796;DHT22;381;48.770;9.188;2023-12-20T04:52:58;6.80;99.90
796;DHT22;381;48.770;9.188;2023-12-20T04:58:00;6.80;99.90
796;DHT22;381;48.770;9.188;2023-12-20T05:03:03;6.80;99.90
796;DHT22;381;48.770;9.188;2023-12-20T05:08:07;6.80;99.90
796;DHT22;381;48.770;9.188;2023-12-20T05:13:09;6.80;99.90
796;DHT22;381;48.770;9.188;2023-12-20T05:18:12;6.80;99.90
796;DHT22;381;48.770;9.188;2023-12-20T05:23:15;6.80;99.90
796;DHT22;381;48.770;9.188;2023-12-20T05:28:18;6.80;99.90
796;DHT22;381;48.770;9.188;2023-12-20T05:33:20;6.80;99.90
796;DHT22;381;48.770;9.188;2023-12-20T05:38:24;6.90;99.90
796;DHT22;381;48.770;9.188;2023-12-20T05:43:26;6.90;99.90
796;DHT22;381;48.770;9.188;2023-12-20T05:48:29;6.90;99.90
796;DHT22;381;48.770;9.188;2023-12-20T05:53:32;6.90;99.90
796;DHT22;381;48.770;9.188;2023-12-20T05:58:35;6.90;99.90
796;DHT22;381;48.770;9.188;2023-12-20T06:03:40;6.90;99.90
796;DHT22;381;48.770;9.188;2023-12-20T06:08:44;6.90;99.90
796;DHT22;381;48.770;9.188;2023-12-20T06:13:46;6.90;99.90
796;DHT22;381;48.770;9.188;2023-12-20T06:18:50;6.90;99.90
796;DHT22;381;48.770;9.188;2023-12-20T06:23:53;6.90;99.90
796;DHT22;381;48.770;9.188;2023-12-20T06:28:56;6.90;99.90
796;DHT22;381;48.770;9.188;2023-12-20T06:33:58;6.80;99.90
796;DHT22;381;48.770;9.188;2023-12-20T06:39:02;6.80;99.90
796;DHT22;381;48.770;9.188;2023-12-20T06:44:05;6.80;99.90
796;DHT22;381;48.770;9.188;2023-12-20T06:49:08;6.80;99.90
796;DHT22;381;48.770;9.188;2023-12-20T06:54:11;6.90;99.90
796;DHT22;381;48.770;9.188;2023-12-20T06:59:14;6.90;99.90
796;DHT22;381;48.770;9.188;2023-12-20T07:04:17;6.90;99.90
796;DHT22;381;48.770;9.188;2023-12-20T07:09:22;6.90;99.90
796;DHT22;381;48.770;9.188;2023-12-20T07:14:25;6.90;99.90
796;DHT22;381;48.770;9.188;2023-12-20T07:19:27;7.00;99.90
796;DHT22;381;48.770;9.188;2023-12-20T07:24:31;7.00;99.90
796;DHT22;381;48.770;9.188;2023-12-20T07:29:33;7.00;99.90
796;DHT22;381;48.770;9.188;2023-12-20T07:34:35;7.10;99.90
796;DHT22;381;48.770;9.188;2023-12-20T07:39:39;7.10;99.90
796;DHT22;381;48.770;9.188;2023-12-20T07:44:42;7.20;99.90
796;DHT22;381;48.770;9.188;2023-12-20T07:49:44;7.20;99.90
796;DHT22;381;48.770;9.188;2023-12-20T07:54:48;7.20;99.90
796;DHT22;381;48.770;9.188;2023-12-20T07:59:50;7.20;99.90
796;DHT22;381;48.770;9.188;2023-12-20T08:04:53;7.10;99.90
796;DHT22;381;48.770;9.188;2023-12-20T08:09:56;7.10;99.90
796;DHT22;381;48.770;9.188;2023-12-20T08:14:59;7.10;99.90
796;DHT22;381;48.770;9.188;2023-12-20T08:20:01;7.10;99.90
796;DHT22;381;48.770;9.188;2023-12-20T08:25:05;7.10;99.90
796;DHT22;381;48.770;9.188;2023-12-20T08:30:09;7.00;99.90
796;DHT22;381;48.770;9.188;2023-12-20T08:35:11;7.10;99.90
796;DHT22;381;48.770;9.188;2023-12-20T08:40:15;7.10;99.90
796;DHT22;381;48.770;9.188;2023-12-20T08:45:17;7.20;99.90
796;DHT22;381;48.770;9.188;2023-12-20T08:50:20;7.00;99.90
796;DHT22;381;48.770;9.188;2023-12-20T08:55:23;7.00;99.90
796;DHT22;381;48.770;9.188;2023-12-20T09:00:27;7.00;99.90
796;DHT22;381;48.770;9.188;2023-12-20T09:05:30;6.90;99.90
796;DHT22;381;48.770;9.188;2023-12-20T09:10:34;6.90;99.90
796;DHT22;381;48.770;9.188;2023-12-20T09:15:37;6.80;99.90
796;DHT22;381;48.770;9.188;2023-12-20T09:20:39;6.80;99.90
796;DHT22;381;48.770;9.188;2023-12-20T09:25:43;6.90;99.90
796;DHT22;381;48.770;9.188;2023-12-20T09:30:45;6.80;99.90
796;DHT22;381;48.770;9.188;2023-12-20T09:35:48;6.80;99.90
796;DHT22;381;48.770;9.188;2023-12-20T09:40:52;6.80;99.90
796;DHT22;381;48.770;9.188;2023-12-20T09:45:59;6.80;99.90
796;DHT22;381;48.770;9.188;2023-12-20T09:51:03;6.80;99.90
796;DHT22;381;48.770;9.188;2023-12-20T09:56:07;6.80;99.90
796;DHT22;381;48.770;9.188;2023-12-20T10:01:10;6.80;99.90
796;DHT22;381;48.770;9.188;2023-12-20T10:06:13;6.80;99.90
796;DHT22;381;48.770;9.188;2023-12-20T10:11:17;6.80;99.90
796;DHT22;381;48.770;9.188;2023-12-20T10:16:24;6.80;99.90
796;DHT22;381;48.770;9.188;2023-12-20T10:21:27;6.80;99.90
796;DHT22;381;48.770;9.188;2023-12-20T10:26:31;7.00;99.90
796;DHT22;381;48.770;9.188;2023-12-20T10:31:34;7.10;99.90
796;DHT22;381;48.770;9.188;2023-12-20T10:36:37;7.30;99.90
796;DHT22;381;48.770;9.188;2023-12-20T10:41:42;7.40;99.90
796;DHT22;381;48.770;9.188;2023-12-20T10:46:46;7.50;99.90
796;DHT22;381;48.770;9.188;2023-12-20T10:51:54;7.60;99.90
796;DHT22;381;48.770;9.188;2023-12-20T10:57:00;7.70;99.90
796;DHT22;381;48.770;9.188;2023-12-20T11:02:03;7.70;99.90
796;DHT22;381;48.770;9.188;2023-12-20T11:07:15;7.70;99.90
796;DHT22;381;48.770;9.188;2023-12-20T11:12:25;7.70;99.90
796;DHT22;381;48.770;9.188;2023-12-20T11:17:31;7.80;99.90
796;DHT22;381;48.770;9.188;2023-12-20T11:22:34;7.80;99.90
796;DHT22;381;48.770;9.188;2023-12-20T11:27:41;7.90;99.90
796;DHT22;381;48.770;9.188;2023-12-20T11:32:46;7.90;99.90
796;DHT22;381;48.770;9.188;2023-12-20T11:37:48;7.90;99.90
796;DHT22;381;48.770;9.188;2023-12-20T11:42:52;7.80;99.90
796;DHT22;381;48.770;9.188;2023-12-20T11:47:56;7.80;99.90
796;DHT22;381;48.770;9.188;2023-12-20T11:52:59;7.80;99.90
796;DHT22;381;48.770;9.188;2023-12-20T11:58:03;7.80;99.90
796;DHT22;381;48.770;9.188;2023-12-20T12:03:05;7.80;99.90
796;DHT22;381;48.770;9.188;2023-12-20T12:08:07;7.80;99.90
796;DHT22;381;48.770;9.188;2023-12-20T12:13:12;7.80;99.90
796;DHT22;381;48.770;9.188;2023-12-20T12:18:16;7.90;99.90
796;DHT22;381;48.770;9.188;2023-12-20T12:23:23;7.80;99.90
796;DHT22;381;48.770;9.188;2023-12-20T12:28:27;7.80;99.90
796;DHT22;381;48.770;9.188;2023-12-20T12:33:30;7.80;99.90
796;DHT22;381;48.770;9.188;2023-12-20T12:38:32;7.90;99.90
796;DHT22;381;48.770;9.188;2023-12-20T12:43:36;7.90;99.90
796;DHT22;381;48.770;9.188;2023-12-20T12:48:39;7.80;99.90
796;DHT22;381;48.770;9.188;2023-12-20T12:53:41;7.80;99.90
796;DHT22;381;48.770;9.188;2023-12-20T12:58:45;7.80;99.90
796;DHT22;381;48.770;9.188;2023-12-20T13:03:47;7.80;99.90
796;DHT22;381;48.770;9.188;2023-12-20T13:08:50;7.90;99.90
796;DHT22;381;48.770;9.188;2023-12-20T13:13:53;7.90;99.90
796;DHT22;381;48.770;9.188;2023-12-20T13:18:56;7.90;99.90
796;DHT22;381;48.770;9.188;2023-12-20T13:24:00;8.00;99.90
796;DHT22;381;48.770;9.188;2023-12-20T13:29:03;8.10;99.90
796;DHT22;381;48.770;9.188;2023-12-20T13:34:06;8.00;99.90
796;DHT22;381;48.770;9.188;2023-12-20T13:39:08;8.00;99.90
796;DHT22;381;48.770;9.188;2023-12-20T13:44:12;8.10;99.90
796;DHT22;381;48.770;9.188;2023-12-20T13:49:15;8.10;99.90
796;DHT22;381;48.770;9.188;2023-12-20T13:54:17;8.10;99.90
796;DHT22;381;48.770;9.188;2023-12-20T13:59:24;8.20;99.90
796;DHT22;381;48.770;9.188;2023-12-20T14:04:27;8.10;99.90
796;DHT22;381;48.770;9.188;2023-12-20T14:09:29;8.10;99.90
796;DHT22;381;48.770;9.188;2023-12-20T14:14:33;8.00;99.90
796;DHT22;381;48.770;9.188;2023-12-20T14:19:35;8.00;99.90
796;DHT22;381;48.770;9.188;2023-12-20T14:24:38;7.90;99.90
796;DHT22;381;48.770;9.188;2023-12-20T14:29:41;7.90;99.90
796;DHT22;381;48.770;9.188;2023-12-20T14:34:44;7.80;99.90
796;DHT22;381;48.770;9.188;2023-12-20T14:39:46;7.80;99.90
796;DHT22;381;48.770;9.188;2023-12-20T14:44:50;7.90;99.90
796;DHT22;381;48.770;9.188;2023-12-20T14:49:53;7.80;99.90
796;DHT22;381;48.770;9.188;2023-12-20T14:54:55;7.80;99.90
796;DHT22;381;48.770;9.188;2023-12-20T14:59:59;7.70;99.90
796;DHT22;381;48.770;9.188;2023-12-20T15:05:01;7.60;99.90
796;DHT22;381;48.770;9.188;2023-12-20T15:10:04;7.50;99.90
796;DHT22;381;48.770;9.188;2023-12-20T15:15:09;7.50;99.90
796;DHT22;381;48.770;9.188;2023-12-20T15:20:12;7.60;99.90
796;DHT22;381;48.770;9.188;2023-12-20T15:25:14;7.50;99.90
796;DHT22;381;48.770;9.188;2023-12-20T15:30:23;7.50;99.90
796;DHT22;381;48.770;9.188;2023-12-20T15:35:26;7.40;99.90
796;DHT22;381;48.770;9.188;2023-12-20T15:40:28;7.40;99.90
796;DHT22;381;48.770;9.188;2023-12-20T15:45:32;7.40;99.90
796;DHT22;381;48.770;9.188;2023-12-20T15:50:34;7.30;99.90
796;DHT22;381;48.770;9.188;2023-12-20T15:55:37;7.30;99.90
796;DHT22;381;48.770;9.188;2023-12-20T16:00:41;7.30;99.90
796;DHT22;381;48.770;9.188;2023-12-20T16:05:43;7.20;99.90
796;DHT22;381;48.770;9.188;2023-12-20T16:10:45;7.20;99.90
796;DHT22;381;48.770;9.188;2023-12-20T16:15:49;7.20;99.90
796;DHT22;381;48.770;9.188;2023-12-20T16:20:51;7.20;99.90
796;DHT22;381;48.770;9.188;2023-12-20T16:25:54;7.10;99.90
796;DHT22;381;48.770;9.188;2023-12-20T16:30:58;7.10;99.90
796;DHT22;381;48.770;9.188;2023-12-20T16:36:00;7.10;99.90
796;DHT22;381;48.770;9.188;2023-12-20T16:41:03;7.00;99.90
796;DHT22;381;48.770;9.188;2023-12-20T16:46:07;7.10;99.90
796;DHT22;381;48.770;9.188;2023-12-20T16:51:10;7.10;99.90
796;DHT22;381;48.770;9.188;2023-12-20T16:56:12;7.00;99.90
796;DHT22;381;48.770;9.188;2023-12-20T17:01:16;7.00;99.90
796;DHT22;381;48.770;9.188;2023-12-20T17:06:19;7.00;99.90
796;DHT22;381;48.770;9.188;2023-12-20T17:11:21;7.00;99.90
796;DHT22;381;48.770;9.188;2023-12-20T17:16:25;6.90;99.90
796;DHT22;381;48.770;9.188;2023-12-20T17:21:28;6.90;99.90
796;DHT22;381;48.770;9.188;2023-12-20T17:26:30;6.90;99.90
796;DHT22;381;48.770;9.188;2023-12-20T17:31:34;6.90;99.90
796;DHT22;381;48.770;9.188;2023-12-20T17:36:37;6.90;99.90
796;DHT22;381;48.770;9.188;2023-12-20T17:41:39;6.80;99.90
796;DHT22;381;48.770;9.188;2023-12-20T17:46:43;6.80;99.90
796;DHT22;381;48.770;9.188;2023-12-20T17:51:46;6.80;99.90
796;DHT22;381;48.770;9.188;2023-12-20T17:56:48;6.80;99.90
796;DHT22;381;48.770;9.188;2023-12-20T18:01:52;6.80;99.90
796;DHT22;381;48.770;9.188;2023-12-20T18:06:54;6.80;99.90
796;DHT22;381;48.770;9.188;2023-12-20T18:11:57;6.80;99.90
796;DHT22;381;48.770;9.188;2023-12-20T18:17:01;6.80;99.90
796;DHT22;381;48.770;9.188;2023-12-20T18:22:04;6.80;99.90
796;DHT22;381;48.770;9.188;2023-12-20T18:27:06;6.80;99.90
796;DHT22;381;48.770;9.188;2023-12-20T18:32:10;6.70;99.90
796;DHT22;381;48.770;9.188;2023-12-20T18:37:12;6.70;99.90
796;DHT22;381;48.770;9.188;2023-12-20T18:42:15;6.80;99.90
796;DHT22;381;48.770;9.188;2023-12-20T18:47:18;6.80;99.90
796;DHT22;381;48.770;9.188;2023-12-20T18:52:21;6.80;99.90
796;DHT22;381;48.770;9.188;2023-12-20T18:57:24;6.80;99.90
796;DHT22;381;48.770;9.188;2023-12-20T19:02:28;6.80;99.90
796;DHT22;381;48.770;9.188;2023-12-20T19:07:32;6.80;99.90
796;DHT22;381;48.770;9.188;2023-12-20T19:12:34;6.80;99.90
796;DHT22;381;48.770;9.188;2023-12-20T19:17:38;6.80;99.90
796;DHT22;381;48.770;9.188;2023-12-20T19:22:40;6.80;99.90
796;DHT22;381;48.770;9.188;2023-12-20T19:27:42;6.80;99.90
796;DHT22;381;48.770;9.188;2023-12-20T19:32:46;6.70;99.90
796;DHT22;381;48.770;9.188;2023-12-20T19:37:49;6.70;99.90
796;DHT22;381;48.770;9.188;2023-12-20T19:42:51;6.70;99.90
796;DHT22;381;48.770;9.188;2023-12-20T19:47:55;6.70;99.90
796;DHT22;381;48.770;9.188;2023-12-20T19:52:57;6.80;99.90
796;DHT22;381;48.770;9.188;2023-12-20T19:58:00;6.70;99.90
796;DHT22;381;48.770;9.188;2023-12-20T20:03:04;6.70;99.90
796;DHT22;381;48.770;9.188;2023-12-20T20:08:06;6.60;99.90
796;DHT22;381;48.770;9.188;2023-12-20T20:13:09;6.60;99.90
796;DHT22;381;48.770;9.188;2023-12-20T20:18:13;6.50;99.90
796;DHT22;381;48.770;9.188;2023-12-20T20:23:16;6.50;99.90
796;DHT22;381;48.770;9.188;2023-12-20T20:28:18;6.40;99.90
796;DHT22;381;48.770;9.188;2023-12-20T20:33:22;6.40;99.90
796;DHT22;381;48.770;9.188;2023-12-20T20:38:24;6.40;99.90
796;DHT22;381;48.770;9.188;2023-12-20T20:43:27;6.40;99.90
796;DHT22;381;48.770;9.188;2023-12-20T20:48:31;6.40;99.90
796;DHT22;381;48.770;9.188;2023-12-20T20:53:33;6.50;99.90
796;DHT22;381;48.770;9.188;2023-12-20T20:58:35;6.60;99.90
796;DHT22;381;48.770;9.188;2023-12-20T21:03:39;6.60;99.90
796;DHT22;381;48.770;9.188;2023-12-20T21:08:41;6.60;99.90
796;DHT22;381;48.770;9.188;2023-12-20T21:13:45;6.70;99.90
796;DHT22;381;48.770;9.188;2023-12-20T21:18:50;6.70;99.90
796;DHT22;381;48.770;9.188;2023-12-20T21:23:52;6.70;99.90
796;DHT22;381;48.770;9.188;2023-12-20T21:28:55;6.70;99.90
796;DHT22;381;48.770;9.188;2023-12-20T21:33:59;6.70;99.90
796;DHT22;381;48.770;9.188;2023-12-20T21:39:01;6.80;99.90
796;DHT22;381;48.770;9.188;2023-12-20T21:44:04;6.80;99.90
796;DHT22;381;48.770;9.188;2023-12-20T21:49:09;6.80;99.90
796;DHT22;381;48.770;9.188;2023-12-20T21:54:12;6.80;99.90
796;DHT22;381;48.770;9.188;2023-12-20T21:59:15;6.80;99.90
796;DHT22;381;48.770;9.188;2023-12-20T22:04:19;6.70;99.90
796;DHT22;381;48.770;9.188;2023-12-20T22:09:21;6.70;99.90
796;DHT22;381;48.770;9.188;2023-12-20T22:14:24;6.70;99.90
796;DHT22;381;48.770;9.188;2023-12-20T22:19:28;6.80;99.90
796;DHT22;381;48.770;9.188;2023-12-20T22:24:30;6.80;99.90
796;DHT22;381;48.770;9.188;2023-12-20T22:29:32;6.80;99.90
796;DHT22;381;48.770;9.188;2023-12-20T22:34:36;6.90;99.90
796;DHT22;381;48.770;9.188;2023-12-20T22:39:39;6.90;99.90
796;DHT22;381;48.770;9.188;2023-12-20T22:44:41;6.90;99.90
796;DHT22;381;48.770;9.188;2023-12-20T22:49:45;6.90;99.90
796;DHT22;381;48.770;9.188;2023-12-20T22:54:48;6.90;99.90
796;DHT22;381;48.770;9.188;2023-12-20T22:59:51;7.00;99.90
796;DHT22;381;48.770;9.188;2023-12-20T23:04:55;7.00;99.90
796;DHT22;381;48.770;9.188;2023-12-20T23:09:57;7.00;99.90
796;DHT22;381;48.770;9.188;2023-12-20T23:15:00;7.00;99.90
796;DHT22;381;48.770;9.188;2023-12-20T23:20:04;7.00;99.90
796;DHT22;381;48.770;9.188;2023-12-20T23:25:07;7.00;99.90
796;DHT22;381;48.770;9.188;2023-12-20T23:30:10;7.00;99.90
796;DHT22;381;48.770;9.188;2023-12-20T23:35:14;7.00;99.90
796;DHT22;381;48.770;9.188;2023-12-20T23:40:16;7.10;99.90
796;DHT22;381;48.770;9.188;2023-12-20T23:45:18;7.10;99.90
796;DHT22;381;48.770;9.188;2023-12-20T23:50:22;7.10;99.90
796;DHT22;381;48.770;9.188;2023-12-20T23:55:25;7.10;99.90
